createdAt,value
2022-12-14T00:01:31.365Z,99363.75
2022-12-14T00:08:21.414Z,99360.56
2022-12-14T00:15:07.803Z,99371.16
2022-12-14T00:21:53.467Z,99352.78
2022-12-14T00:28:41.847Z,99329.78
2022-12-14T00:35:27.596Z,99310.56
2022-12-14T00:42:13.059Z,99314.91
2022-12-14T00:49:01.037Z,99316.53
2022-12-14T00:55:49.212Z,99294.34
2022-12-14T01:02:35.248Z,99295.94
2022-12-14T01:09:26.259Z,99287.00
2022-12-14T01:16:14.506Z,99297.81
2022-12-14T01:23:00.317Z,99295.91
2022-12-14T01:29:48.765Z,99299.44
2022-12-14T01:36:38.259Z,99285.38
2022-12-14T01:43:24.024Z,99276.44
2022-12-14T01:50:22.288Z,99257.00
2022-12-14T01:57:07.936Z,99245.34
2022-12-14T02:03:56.169Z,99256.47
2022-12-14T02:10:44.580Z,99242.66
2022-12-14T02:17:31.352Z,99233.22
2022-12-14T02:25:12.468Z,99225.91
2022-12-14T02:32:17.850Z,99221.03
2022-12-14T02:39:12.709Z,99209.66
2022-12-14T02:46:06.408Z,99218.31
2022-12-14T02:53:05.101Z,99194.22
2022-12-14T02:59:53.329Z,99188.56
2022-12-14T03:06:38.844Z,99202.84
2022-12-14T03:13:32.016Z,99187.44
2022-12-14T03:20:22.557Z,99166.56
2022-12-14T03:27:12.576Z,99013.69
2022-12-14T03:34:05.655Z,99163.06
2022-12-14T03:41:10.140Z,99157.34
2022-12-14T04:01:28.366Z,99129.78
2022-12-14T04:08:22.814Z,99126.81
2022-12-14T04:15:27.320Z,99127.66
2022-12-14T04:22:20.715Z,99052.31
2022-12-14T04:29:24.858Z,99108.78
2022-12-14T04:36:11.350Z,99097.69
2022-12-14T04:43:04.352Z,99106.91
2022-12-14T04:49:55.658Z,99125.03
2022-12-14T04:56:49.235Z,99116.91
2022-12-14T05:03:40.611Z,99119.63
2022-12-14T05:10:37.905Z,99108.00
2022-12-14T05:17:24.139Z,99110.44
2022-12-14T05:24:12.316Z,99119.66
2022-12-14T05:30:58.151Z,99108.81
2022-12-14T05:37:43.793Z,99118.56
2022-12-14T05:44:32.147Z,99112.09
2022-12-14T05:51:17.521Z,99103.16
2022-12-14T05:58:03.187Z,99088.56
2022-12-14T06:04:51.215Z,99065.59
2022-12-14T06:11:40.683Z,99058.03
2022-12-14T06:18:26.179Z,99047.75
2022-12-14T06:25:14.407Z,99059.09
2022-12-14T06:31:59.855Z,99033.13
2022-12-14T06:38:45.346Z,99002.31
2022-12-14T06:45:34.548Z,99008.47
2022-12-14T06:52:26.470Z,98991.72
2022-12-14T06:59:13.472Z,98972.84
2022-12-14T07:06:03.568Z,98946.13
2022-12-14T07:12:48.959Z,98933.47
2022-12-14T07:19:34.315Z,98943.97
2022-12-14T07:26:24.266Z,98942.94
2022-12-14T07:33:10.276Z,98971.28
2022-12-14T07:39:55.718Z,98968.22
2022-12-14T07:46:44.422Z,98935.22
2022-12-14T07:53:30.085Z,98962.13
2022-12-14T08:00:17.365Z,98997.25
2022-12-14T08:07:05.241Z,99007.59
2022-12-14T08:13:50.572Z,99002.34
2022-12-14T08:20:36.289Z,98983.16
2022-12-14T08:27:24.233Z,98982.34
2022-12-14T08:34:10.071Z,98932.22
2022-12-14T08:40:55.592Z,98978.41
2022-12-14T08:47:43.597Z,99008.16
2022-12-14T08:54:28.944Z,98986.78
2022-12-14T09:01:17.268Z,98982.75
2022-12-14T09:08:05.375Z,98990.84
2022-12-14T09:14:50.870Z,98997.63
2022-12-14T09:21:36.605Z,98992.25
2022-12-14T09:28:24.926Z,98983.84
2022-12-14T09:35:11.258Z,98964.16
2022-12-14T09:42:10.088Z,98973.63
2022-12-14T09:48:59.968Z,98960.66
2022-12-14T09:55:49.150Z,98958.47
2022-12-14T10:02:55.682Z,98965.22
2022-12-14T10:09:51.561Z,98959.31
2022-12-14T10:16:52.051Z,98946.94
2022-12-14T10:23:39.040Z,98934.53
2022-12-14T10:30:27.047Z,98959.09
2022-12-14T10:37:28.333Z,98930.50
2022-12-14T10:44:23.785Z,98926.22
2022-12-14T10:51:17.166Z,98938.63
2022-12-14T10:58:03.283Z,98947.28
2022-12-14T11:04:53.717Z,98965.63
2022-12-14T11:11:43.068Z,98948.09
2022-12-14T11:18:34.193Z,98966.19
2022-12-14T11:25:38.950Z,98951.56
2022-12-14T11:32:28.573Z,98947.78
2022-12-14T11:39:25.915Z,98948.59
2022-12-14T11:46:11.579Z,98944.50
2022-12-14T11:53:11.544Z,98926.13
2022-12-14T12:00:00.644Z,98921.22
2022-12-14T12:06:46.246Z,98921.97
2022-12-14T12:13:39.823Z,98922.28
2022-12-14T12:20:32.120Z,98920.66
2022-12-14T12:27:19.431Z,98916.78
2022-12-14T12:34:15.122Z,98903.75
2022-12-14T12:41:08.813Z,98907.97
2022-12-14T12:47:58.844Z,98915.25
2022-12-14T12:54:57.204Z,98948.44
2022-12-14T13:01:48.150Z,98949.25
2022-12-14T13:08:39.227Z,98954.00
2022-12-14T13:15:32.877Z,98964.03
2022-12-14T13:22:25.241Z,98947.56
2022-12-14T13:29:21.061Z,98947.06
2022-12-14T13:36:40.229Z,98978.91
2022-12-14T13:43:51.845Z,98990.00
2022-12-14T13:50:52.935Z,98984.91
2022-12-14T13:57:47.565Z,98979.50
2022-12-14T14:04:36.459Z,98974.97
2022-12-14T14:11:52.299Z,99009.31
2022-12-14T14:18:51.102Z,99008.88
2022-12-14T14:25:46.666Z,99024.06
2022-12-14T14:32:43.855Z,99018.09
2022-12-14T14:39:56.162Z,99013.78
2022-12-14T14:46:49.223Z,99019.44
2022-12-14T14:53:37.014Z,98897.78
2022-12-14T15:00:25.590Z,99001.75
2022-12-14T15:07:16.526Z,99021.16
2022-12-14T15:14:06.944Z,99053.88
2022-12-14T15:21:07.605Z,99058.75
2022-12-14T15:27:53.432Z,99067.34
2022-12-14T15:34:38.975Z,99080.63
2022-12-14T15:41:30.368Z,99100.88
2022-12-14T15:48:16.979Z,99093.47
2022-12-14T15:55:03.168Z,99107.19
2022-12-14T16:01:56.026Z,99111.84
2022-12-14T16:08:50.519Z,99123.25
2022-12-14T16:15:36.298Z,99133.09
2022-12-14T16:22:27.897Z,99150.03
2022-12-14T16:29:26.479Z,99121.88
2022-12-14T16:36:25.088Z,99166.78
2022-12-14T16:43:32.110Z,99050.88
2022-12-14T16:50:55.652Z,99183.81
2022-12-14T16:57:30.615Z,99186.84
2022-12-14T17:04:20.390Z,99207.75
2022-12-14T17:11:06.550Z,99113.59
2022-12-14T17:17:55.556Z,99214.78
2022-12-14T17:24:43.554Z,99209.41
2022-12-14T17:31:31.167Z,99232.97
2022-12-14T17:38:18.625Z,99220.75
2022-12-14T17:45:07.690Z,99179.50
2022-12-14T17:51:53.300Z,99221.44
2022-12-14T17:58:38.701Z,99226.13
2022-12-14T18:05:26.865Z,99235.13
2022-12-14T18:12:25.448Z,99248.38
2022-12-14T18:19:10.908Z,99221.66
2022-12-14T18:26:04.096Z,99241.91
2022-12-14T18:32:49.536Z,99252.50
2022-12-14T18:39:35.053Z,99265.16
2022-12-14T18:46:23.045Z,99254.41
2022-12-14T18:53:09.119Z,99278.25
2022-12-14T18:59:54.787Z,99276.66
2022-12-14T19:06:44.471Z,99272.97
2022-12-14T19:13:33.285Z,99285.72
2022-12-14T19:20:23.265Z,99299.53
2022-12-14T19:27:11.635Z,99292.56
2022-12-14T19:33:57.002Z,99325.09
2022-12-14T19:40:43.550Z,99320.25
2022-12-14T19:47:31.592Z,99334.91
2022-12-14T19:54:17.062Z,99321.66
2022-12-14T20:01:02.469Z,99273.78
2022-12-14T20:07:50.650Z,99322.75
2022-12-14T20:14:39.858Z,99330.06
2022-12-14T20:21:29.227Z,99323.56
2022-12-14T20:28:18.127Z,99244.00
2022-12-14T20:35:05.532Z,99339.25
2022-12-14T20:41:50.903Z,99326.56
2022-12-14T20:48:41.280Z,99350.63
2022-12-14T20:55:26.971Z,99352.25
2022-12-14T21:02:20.828Z,99362.25
2022-12-14T21:09:12.176Z,99347.34
2022-12-14T21:15:57.773Z,99367.34
2022-12-14T21:22:43.239Z,99387.06
2022-12-14T21:29:31.278Z,99375.66
2022-12-14T21:36:17.360Z,99380.25
2022-12-14T21:43:04.080Z,99380.72
2022-12-14T21:49:52.440Z,99291.28
2022-12-14T21:56:53.304Z,99388.28
2022-12-14T22:03:38.848Z,99372.00
2022-12-14T22:10:27.125Z,99370.94
2022-12-14T22:17:15.355Z,99394.53
2022-12-14T22:24:02.070Z,99396.13
2022-12-14T22:30:50.052Z,99421.28
2022-12-14T22:37:35.720Z,99404.53
2022-12-14T22:44:21.105Z,99417.84
2022-12-14T22:51:11.763Z,99431.41
2022-12-14T22:57:58.250Z,99425.97
2022-12-14T23:04:43.828Z,99417.63
2022-12-14T23:11:44.855Z,99331.16
2022-12-14T23:18:42.812Z,99383.03
2022-12-14T23:25:40.692Z,99376.28
2022-12-14T23:32:41.127Z,99385.97
2022-12-14T23:39:39.054Z,99415.75
2022-12-14T23:46:37.030Z,99447.13
2022-12-14T23:53:37.525Z,99424.88
